sensor_id;sensor_type;location;lat;lon;timestamp;P1;durP1;ratioP1;P2;durP2;ratioP2
8046;SDS011;74083;42.516;23.358;2024-03-02T00:01:53;12.87;;;9.97;;
8046;SDS011;74083;42.516;23.358;2024-03-02T00:04:39;14.10;;;11.10;;
8046;SDS011;74083;42.516;23.358;2024-03-02T00:07:26;14.37;;;10.37;;
8046;SDS011;74083;42.516;23.358;2024-03-02T00:10:14;13.53;;;10.43;;
8046;SDS011;74083;42.516;23.358;2024-03-02T00:13:05;12.60;;;10.07;;
8046;SDS011;74083;42.516;23.358;2024-03-02T00:15:53;13.10;;;10.50;;
8046;SDS011;74083;42.516;23.358;2024-03-02T00:18:39;15.13;;;10.27;;
8046;SDS011;74083;42.516;23.358;2024-03-02T00:21:26;14.80;;;11.20;;
8046;SDS011;74083;42.516;23.358;2024-03-02T00:24:20;13.20;;;10.00;;
8046;SDS011;74083;42.516;23.358;2024-03-02T00:27:12;14.90;;;10.13;;
8046;SDS011;74083;42.516;23.358;2024-03-02T00:30:01;14.07;;;9.70;;
8046;SDS011;74083;42.516;23.358;2024-03-02T00:33:11;12.43;;;9.10;;
8046;SDS011;74083;42.516;23.358;2024-03-02T00:35:57;12.50;;;9.40;;
8046;SDS011;74083;42.516;23.358;2024-03-02T00:38:46;11.87;;;9.23;;
8046;SDS011;74083;42.516;23.358;2024-03-02T00:41:34;11.13;;;9.10;;
8046;SDS011;74083;42.516;23.358;2024-03-02T00:44:20;11.93;;;9.20;;
8046;SDS011;74083;42.516;23.358;2024-03-02T00:47:13;11.57;;;8.73;;
8046;SDS011;74083;42.516;23.358;2024-03-02T00:49:59;12.20;;;8.97;;
8046;SDS011;74083;42.516;23.358;2024-03-02T00:52:45;10.17;;;8.60;;
8046;SDS011;74083;42.516;23.358;2024-03-02T00:55:34;11.83;;;8.80;;
8046;SDS011;74083;42.516;23.358;2024-03-02T00:58:24;10.23;;;8.90;;
8046;SDS011;74083;42.516;23.358;2024-03-02T01:01:09;11.50;;;9.20;;
8046;SDS011;74083;42.516;23.358;2024-03-02T01:03:55;9.43;;;7.77;;
8046;SDS011;74083;42.516;23.358;2024-03-02T01:06:42;11.67;;;7.83;;
8046;SDS011;74083;42.516;23.358;2024-03-02T01:09:28;10.43;;;7.83;;
8046;SDS011;74083;42.516;23.358;2024-03-02T01:12:14;14.20;;;8.83;;
8046;SDS011;74083;42.516;23.358;2024-03-02T01:15:02;9.87;;;8.20;;
8046;SDS011;74083;42.516;23.358;2024-03-02T01:17:51;11.57;;;8.47;;
8046;SDS011;74083;42.516;23.358;2024-03-02T01:20:37;9.63;;;8.30;;
8046;SDS011;74083;42.516;23.358;2024-03-02T01:23:23;9.53;;;8.03;;
8046;SDS011;74083;42.516;23.358;2024-03-02T01:26:10;9.80;;;8.03;;
8046;SDS011;74083;42.516;23.358;2024-03-02T01:28:56;10.13;;;8.27;;
8046;SDS011;74083;42.516;23.358;2024-03-02T01:31:43;11.20;;;8.43;;
8046;SDS011;74083;42.516;23.358;2024-03-02T01:34:29;8.57;;;7.60;;
8046;SDS011;74083;42.516;23.358;2024-03-02T01:37:15;9.87;;;7.77;;
8046;SDS011;74083;42.516;23.358;2024-03-02T01:40:01;9.23;;;7.90;;
8046;SDS011;74083;42.516;23.358;2024-03-02T01:42:53;8.77;;;7.20;;
8046;SDS011;74083;42.516;23.358;2024-03-02T01:45:39;8.97;;;7.20;;
8046;SDS011;74083;42.516;23.358;2024-03-02T01:48:26;8.13;;;7.03;;
8046;SDS011;74083;42.516;23.358;2024-03-02T01:51:13;8.73;;;7.33;;
8046;SDS011;74083;42.516;23.358;2024-03-02T01:53:58;8.60;;;7.10;;
8046;SDS011;74083;42.516;23.358;2024-03-02T01:56:45;8.30;;;7.20;;
8046;SDS011;74083;42.516;23.358;2024-03-02T01:59:31;9.50;;;7.73;;
8046;SDS011;74083;42.516;23.358;2024-03-02T02:02:17;7.73;;;6.60;;
8046;SDS011;74083;42.516;23.358;2024-03-02T02:05:05;8.47;;;7.50;;
8046;SDS011;74083;42.516;23.358;2024-03-02T02:07:52;8.03;;;7.07;;
8046;SDS011;74083;42.516;23.358;2024-03-02T02:10:38;8.00;;;7.20;;
8046;SDS011;74083;42.516;23.358;2024-03-02T02:13:24;7.80;;;6.87;;
8046;SDS011;74083;42.516;23.358;2024-03-02T02:16:10;7.13;;;6.33;;
8046;SDS011;74083;42.516;23.358;2024-03-02T02:18:56;7.90;;;7.10;;
8046;SDS011;74083;42.516;23.358;2024-03-02T02:21:43;8.70;;;7.13;;
8046;SDS011;74083;42.516;23.358;2024-03-02T02:24:29;7.30;;;6.50;;
8046;SDS011;74083;42.516;23.358;2024-03-02T02:27:14;7.67;;;6.87;;
8046;SDS011;74083;42.516;23.358;2024-03-02T02:30:00;7.23;;;6.53;;
8046;SDS011;74083;42.516;23.358;2024-03-02T02:32:46;7.43;;;6.63;;
8046;SDS011;74083;42.516;23.358;2024-03-02T02:35:33;8.13;;;6.40;;
8046;SDS011;74083;42.516;23.358;2024-03-02T02:38:20;7.43;;;6.67;;
8046;SDS011;74083;42.516;23.358;2024-03-02T02:41:06;8.63;;;7.07;;
8046;SDS011;74083;42.516;23.358;2024-03-02T02:43:52;8.40;;;6.83;;
8046;SDS011;74083;42.516;23.358;2024-03-02T02:46:38;7.47;;;6.40;;
8046;SDS011;74083;42.516;23.358;2024-03-02T02:49:24;8.00;;;7.00;;
8046;SDS011;74083;42.516;23.358;2024-03-02T02:52:10;8.00;;;7.20;;
8046;SDS011;74083;42.516;23.358;2024-03-02T02:54:57;7.10;;;6.33;;
8046;SDS011;74083;42.516;23.358;2024-03-02T02:57:43;7.60;;;6.80;;
8046;SDS011;74083;42.516;23.358;2024-03-02T03:00:30;7.67;;;6.87;;
8046;SDS011;74083;42.516;23.358;2024-03-02T03:03:16;8.00;;;7.03;;
8046;SDS011;74083;42.516;23.358;2024-03-02T03:06:02;7.63;;;6.60;;
8046;SDS011;74083;42.516;23.358;2024-03-02T03:08:48;10.53;;;7.50;;
8046;SDS011;74083;42.516;23.358;2024-03-02T03:11:35;7.50;;;6.57;;
8046;SDS011;74083;42.516;23.358;2024-03-02T03:14:21;8.20;;;7.03;;
8046;SDS011;74083;42.516;23.358;2024-03-02T03:17:07;8.67;;;7.23;;
8046;SDS011;74083;42.516;23.358;2024-03-02T03:19:53;8.60;;;6.93;;
8046;SDS011;74083;42.516;23.358;2024-03-02T03:22:40;7.60;;;6.80;;
8046;SDS011;74083;42.516;23.358;2024-03-02T03:25:26;7.33;;;6.60;;
8046;SDS011;74083;42.516;23.358;2024-03-02T03:28:13;8.20;;;6.93;;
8046;SDS011;74083;42.516;23.358;2024-03-02T03:30:59;9.23;;;7.33;;
8046;SDS011;74083;42.516;23.358;2024-03-02T03:33:46;8.30;;;7.03;;
8046;SDS011;74083;42.516;23.358;2024-03-02T03:36:32;7.53;;;6.63;;
8046;SDS011;74083;42.516;23.358;2024-03-02T03:39:18;8.20;;;7.37;;
8046;SDS011;74083;42.516;23.358;2024-03-02T03:42:04;8.37;;;7.10;;
8046;SDS011;74083;42.516;23.358;2024-03-02T03:44:51;9.10;;;6.83;;
8046;SDS011;74083;42.516;23.358;2024-03-02T03:47:37;9.10;;;7.10;;
8046;SDS011;74083;42.516;23.358;2024-03-02T03:50:22;8.53;;;7.10;;
8046;SDS011;74083;42.516;23.358;2024-03-02T03:53:09;9.17;;;7.83;;
8046;SDS011;74083;42.516;23.358;2024-03-02T03:55:55;8.40;;;7.50;;
8046;SDS011;74083;42.516;23.358;2024-03-02T03:58:40;8.20;;;6.90;;
8046;SDS011;74083;42.516;23.358;2024-03-02T04:01:28;8.37;;;7.03;;
8046;SDS011;74083;42.516;23.358;2024-03-02T04:04:14;11.60;;;7.50;;
8046;SDS011;74083;42.516;23.358;2024-03-02T04:07:00;8.03;;;6.97;;
8046;SDS011;74083;42.516;23.358;2024-03-02T04:09:47;7.50;;;6.80;;
8046;SDS011;74083;42.516;23.358;2024-03-02T04:12:32;7.60;;;6.80;;
8046;SDS011;74083;42.516;23.358;2024-03-02T04:15:18;7.83;;;6.67;;
8046;SDS011;74083;42.516;23.358;2024-03-02T04:18:06;7.47;;;6.57;;
8046;SDS011;74083;42.516;23.358;2024-03-02T04:20:52;7.97;;;7.03;;
8046;SDS011;74083;42.516;23.358;2024-03-02T04:23:38;7.97;;;6.73;;
8046;SDS011;74083;42.516;23.358;2024-03-02T04:26:24;8.80;;;7.10;;
8046;SDS011;74083;42.516;23.358;2024-03-02T04:29:10;7.57;;;6.77;;
8046;SDS011;74083;42.516;23.358;2024-03-02T04:31:56;10.93;;;7.00;;
8046;SDS011;74083;42.516;23.358;2024-03-02T04:34:43;7.90;;;6.80;;
8046;SDS011;74083;42.516;23.358;2024-03-02T04:37:29;6.83;;;6.10;;
8046;SDS011;74083;42.516;23.358;2024-03-02T04:40:15;7.77;;;6.37;;
8046;SDS011;74083;42.516;23.358;2024-03-02T04:43:01;7.53;;;6.67;;
8046;SDS011;74083;42.516;23.358;2024-03-02T04:45:48;8.07;;;7.23;;
8046;SDS011;74083;42.516;23.358;2024-03-02T04:48:34;8.23;;;6.07;;
8046;SDS011;74083;42.516;23.358;2024-03-02T04:51:21;7.30;;;6.60;;
8046;SDS011;74083;42.516;23.358;2024-03-02T04:54:08;8.60;;;6.90;;
8046;SDS011;74083;42.516;23.358;2024-03-02T04:56:53;6.87;;;6.17;;
8046;SDS011;74083;42.516;23.358;2024-03-02T04:59:39;7.13;;;6.30;;
8046;SDS011;74083;42.516;23.358;2024-03-02T05:02:25;8.80;;;6.60;;
8046;SDS011;74083;42.516;23.358;2024-03-02T05:05:11;6.77;;;6.07;;
8046;SDS011;74083;42.516;23.358;2024-03-02T05:08:00;7.37;;;6.30;;
8046;SDS011;74083;42.516;23.358;2024-03-02T05:10:46;7.60;;;5.77;;
8046;SDS011;74083;42.516;23.358;2024-03-02T05:13:32;7.60;;;6.13;;
8046;SDS011;74083;42.516;23.358;2024-03-02T05:16:17;6.83;;;6.00;;
8046;SDS011;74083;42.516;23.358;2024-03-02T05:19:03;6.27;;;5.63;;
8046;SDS011;74083;42.516;23.358;2024-03-02T05:21:50;6.80;;;6.10;;
8046;SDS011;74083;42.516;23.358;2024-03-02T05:24:38;5.80;;;5.30;;
8046;SDS011;74083;42.516;23.358;2024-03-02T05:27:24;6.57;;;5.40;;
8046;SDS011;74083;42.516;23.358;2024-03-02T05:30:10;6.47;;;5.67;;
8046;SDS011;74083;42.516;23.358;2024-03-02T05:32:57;5.93;;;5.33;;
8046;SDS011;74083;42.516;23.358;2024-03-02T05:35:43;5.50;;;5.00;;
8046;SDS011;74083;42.516;23.358;2024-03-02T05:38:29;6.70;;;5.60;;
8046;SDS011;74083;42.516;23.358;2024-03-02T05:41:16;6.43;;;5.83;;
8046;SDS011;74083;42.516;23.358;2024-03-02T05:44:02;6.40;;;5.80;;
8046;SDS011;74083;42.516;23.358;2024-03-02T05:46:48;7.50;;;5.60;;
8046;SDS011;74083;42.516;23.358;2024-03-02T05:49:34;6.00;;;5.33;;
8046;SDS011;74083;42.516;23.358;2024-03-02T05:52:19;7.10;;;5.00;;
8046;SDS011;74083;42.516;23.358;2024-03-02T05:55:06;6.17;;;5.53;;
8046;SDS011;74083;42.516;23.358;2024-03-02T05:57:53;6.10;;;4.70;;
8046;SDS011;74083;42.516;23.358;2024-03-02T06:00:55;6.07;;;4.97;;
8046;SDS011;74083;42.516;23.358;2024-03-02T06:03:41;5.60;;;5.10;;
8046;SDS011;74083;42.516;23.358;2024-03-02T06:06:26;5.23;;;4.73;;
8046;SDS011;74083;42.516;23.358;2024-03-02T06:09:12;5.83;;;5.03;;
8046;SDS011;74083;42.516;23.358;2024-03-02T06:11:58;5.73;;;5.03;;
8046;SDS011;74083;42.516;23.358;2024-03-02T06:14:45;5.53;;;5.00;;
8046;SDS011;74083;42.516;23.358;2024-03-02T06:17:31;5.50;;;5.00;;
8046;SDS011;74083;42.516;23.358;2024-03-02T06:20:17;6.13;;;5.10;;
8046;SDS011;74083;42.516;23.358;2024-03-02T06:23:03;5.53;;;5.03;;
8046;SDS011;74083;42.516;23.358;2024-03-02T06:25:49;5.73;;;5.17;;
8046;SDS011;74083;42.516;23.358;2024-03-02T06:28:35;8.33;;;5.80;;
8046;SDS011;74083;42.516;23.358;2024-03-02T06:31:23;5.50;;;5.00;;
8046;SDS011;74083;42.516;23.358;2024-03-02T06:34:09;5.27;;;4.77;;
8046;SDS011;74083;42.516;23.358;2024-03-02T06:36:55;5.30;;;4.80;;
8046;SDS011;74083;42.516;23.358;2024-03-02T06:39:40;5.67;;;5.17;;
8046;SDS011;74083;42.516;23.358;2024-03-02T06:42:26;5.43;;;4.93;;
8046;SDS011;74083;42.516;23.358;2024-03-02T06:45:16;5.83;;;5.33;;
8046;SDS011;74083;42.516;23.358;2024-03-02T06:48:03;5.40;;;4.90;;
8046;SDS011;74083;42.516;23.358;2024-03-02T06:50:50;5.67;;;5.10;;
8046;SDS011;74083;42.516;23.358;2024-03-02T06:53:36;5.63;;;5.07;;
8046;SDS011;74083;42.516;23.358;2024-03-02T06:56:21;5.07;;;4.60;;
8046;SDS011;74083;42.516;23.358;2024-03-02T06:59:07;5.40;;;4.90;;
8046;SDS011;74083;42.516;23.358;2024-03-02T07:01:53;6.27;;;5.67;;
8046;SDS011;74083;42.516;23.358;2024-03-02T07:04:40;5.77;;;5.03;;
8046;SDS011;74083;42.516;23.358;2024-03-02T07:07:26;5.43;;;4.93;;
8046;SDS011;74083;42.516;23.358;2024-03-02T07:10:11;6.03;;;5.43;;
8046;SDS011;74083;42.516;23.358;2024-03-02T07:12:57;5.63;;;5.13;;
8046;SDS011;74083;42.516;23.358;2024-03-02T07:15:44;5.50;;;5.00;;
8046;SDS011;74083;42.516;23.358;2024-03-02T07:18:50;5.33;;;4.83;;
8046;SDS011;74083;42.516;23.358;2024-03-02T07:21:37;5.73;;;5.03;;
8046;SDS011;74083;42.516;23.358;2024-03-02T07:24:23;5.47;;;4.97;;
8046;SDS011;74083;42.516;23.358;2024-03-02T07:27:09;5.50;;;5.00;;
8046;SDS011;74083;42.516;23.358;2024-03-02T07:29:55;5.27;;;4.60;;
8046;SDS011;74083;42.516;23.358;2024-03-02T07:32:42;5.47;;;4.97;;
8046;SDS011;74083;42.516;23.358;2024-03-02T07:35:29;5.27;;;4.80;;
8046;SDS011;74083;42.516;23.358;2024-03-02T07:38:16;5.23;;;4.73;;
8046;SDS011;74083;42.516;23.358;2024-03-02T07:41:03;5.50;;;5.00;;
8046;SDS011;74083;42.516;23.358;2024-03-02T07:43:48;5.20;;;4.70;;
8046;SDS011;74083;42.516;23.358;2024-03-02T07:46:34;5.13;;;4.63;;
8046;SDS011;74083;42.516;23.358;2024-03-02T07:49:20;4.87;;;4.47;;
8046;SDS011;74083;42.516;23.358;2024-03-02T07:52:06;6.40;;;5.30;;
8046;SDS011;74083;42.516;23.358;2024-03-02T07:54:53;5.30;;;4.80;;
8046;SDS011;74083;42.516;23.358;2024-03-02T07:57:39;5.33;;;4.83;;
8046;SDS011;74083;42.516;23.358;2024-03-02T08:00:25;8.20;;;5.73;;
8046;SDS011;74083;42.516;23.358;2024-03-02T08:03:12;5.23;;;4.73;;
8046;SDS011;74083;42.516;23.358;2024-03-02T08:05:59;4.97;;;4.47;;
8046;SDS011;74083;42.516;23.358;2024-03-02T08:08:45;5.47;;;4.97;;
8046;SDS011;74083;42.516;23.358;2024-03-02T08:11:32;5.40;;;4.33;;
8046;SDS011;74083;42.516;23.358;2024-03-02T08:14:18;5.80;;;5.20;;
8046;SDS011;74083;42.516;23.358;2024-03-02T08:17:04;5.20;;;4.70;;
8046;SDS011;74083;42.516;23.358;2024-03-02T08:19:53;5.37;;;4.87;;
8046;SDS011;74083;42.516;23.358;2024-03-02T08:22:39;5.23;;;4.73;;
8046;SDS011;74083;42.516;23.358;2024-03-02T08:25:26;5.23;;;4.80;;
8046;SDS011;74083;42.516;23.358;2024-03-02T08:28:13;5.73;;;5.07;;
8046;SDS011;74083;42.516;23.358;2024-03-02T08:30:58;5.37;;;4.87;;
8046;SDS011;74083;42.516;23.358;2024-03-02T08:33:44;5.47;;;4.73;;
8046;SDS011;74083;42.516;23.358;2024-03-02T08:36:30;4.87;;;4.37;;
8046;SDS011;74083;42.516;23.358;2024-03-02T08:39:16;5.30;;;4.80;;
8046;SDS011;74083;42.516;23.358;2024-03-02T08:42:03;5.17;;;4.67;;
8046;SDS011;74083;42.516;23.358;2024-03-02T08:44:51;6.33;;;5.73;;
8046;SDS011;74083;42.516;23.358;2024-03-02T08:47:37;5.50;;;5.00;;
8046;SDS011;74083;42.516;23.358;2024-03-02T08:50:23;4.77;;;4.37;;
8046;SDS011;74083;42.516;23.358;2024-03-02T08:53:09;5.47;;;4.97;;
8046;SDS011;74083;42.516;23.358;2024-03-02T08:55:54;5.10;;;4.60;;
8046;SDS011;74083;42.516;23.358;2024-03-02T08:58:41;6.10;;;5.50;;
8046;SDS011;74083;42.516;23.358;2024-03-02T09:01:29;5.90;;;5.30;;
8046;SDS011;74083;42.516;23.358;2024-03-02T09:04:15;6.60;;;4.80;;
8046;SDS011;74083;42.516;23.358;2024-03-02T09:07:01;5.60;;;5.10;;
8046;SDS011;74083;42.516;23.358;2024-03-02T09:09:47;5.83;;;5.23;;
8046;SDS011;74083;42.516;23.358;2024-03-02T09:12:33;5.60;;;5.10;;
8046;SDS011;74083;42.516;23.358;2024-03-02T09:15:19;5.50;;;4.83;;
8046;SDS011;74083;42.516;23.358;2024-03-02T09:18:07;6.30;;;5.63;;
8046;SDS011;74083;42.516;23.358;2024-03-02T09:20:53;5.53;;;5.03;;
8046;SDS011;74083;42.516;23.358;2024-03-02T09:23:39;5.97;;;5.33;;
8046;SDS011;74083;42.516;23.358;2024-03-02T09:26:25;5.30;;;4.80;;
8046;SDS011;74083;42.516;23.358;2024-03-02T09:29:11;5.83;;;5.23;;
8046;SDS011;74083;42.516;23.358;2024-03-02T09:31:57;5.67;;;5.07;;
8046;SDS011;74083;42.516;23.358;2024-03-02T09:34:44;5.37;;;4.87;;
8046;SDS011;74083;42.516;23.358;2024-03-02T09:37:32;5.70;;;5.00;;
8046;SDS011;74083;42.516;23.358;2024-03-02T09:40:18;6.40;;;5.47;;
8046;SDS011;74083;42.516;23.358;2024-03-02T09:43:07;6.30;;;5.30;;
8046;SDS011;74083;42.516;23.358;2024-03-02T09:45:54;5.73;;;5.13;;
8046;SDS011;74083;42.516;23.358;2024-03-02T09:48:40;5.43;;;4.93;;
8046;SDS011;74083;42.516;23.358;2024-03-02T09:51:27;5.90;;;5.30;;
8046;SDS011;74083;42.516;23.358;2024-03-02T09:54:13;6.10;;;5.10;;
8046;SDS011;74083;42.516;23.358;2024-03-02T09:57:01;5.67;;;5.17;;
8046;SDS011;74083;42.516;23.358;2024-03-02T09:59:48;5.40;;;4.90;;
8046;SDS011;74083;42.516;23.358;2024-03-02T10:02:34;5.23;;;4.73;;
8046;SDS011;74083;42.516;23.358;2024-03-02T10:05:23;5.10;;;4.70;;
8046;SDS011;74083;42.516;23.358;2024-03-02T10:08:11;5.13;;;4.63;;
8046;SDS011;74083;42.516;23.358;2024-03-02T10:10:57;4.93;;;4.43;;
8046;SDS011;74083;42.516;23.358;2024-03-02T10:13:43;4.83;;;4.43;;
8046;SDS011;74083;42.516;23.358;2024-03-02T10:16:29;4.77;;;4.37;;
8046;SDS011;74083;42.516;23.358;2024-03-02T10:19:19;4.80;;;4.40;;
8046;SDS011;74083;42.516;23.358;2024-03-02T10:22:06;4.80;;;4.40;;
8046;SDS011;74083;42.516;23.358;2024-03-02T10:24:54;4.90;;;4.40;;
8046;SDS011;74083;42.516;23.358;2024-03-02T10:27:40;5.67;;;5.10;;
8046;SDS011;74083;42.516;23.358;2024-03-02T10:30:26;6.40;;;4.67;;
8046;SDS011;74083;42.516;23.358;2024-03-02T10:33:13;6.63;;;5.27;;
8046;SDS011;74083;42.516;23.358;2024-03-02T10:35:58;5.77;;;4.80;;
8046;SDS011;74083;42.516;23.358;2024-03-02T10:38:44;5.77;;;5.20;;
8046;SDS011;74083;42.516;23.358;2024-03-02T10:41:33;5.50;;;4.90;;
8046;SDS011;74083;42.516;23.358;2024-03-02T10:44:19;6.20;;;5.60;;
8046;SDS011;74083;42.516;23.358;2024-03-02T10:47:07;6.43;;;5.83;;
8046;SDS011;74083;42.516;23.358;2024-03-02T10:49:57;6.50;;;5.80;;
8046;SDS011;74083;42.516;23.358;2024-03-02T10:52:47;7.17;;;6.47;;
8046;SDS011;74083;42.516;23.358;2024-03-02T10:55:33;7.03;;;6.33;;
8046;SDS011;74083;42.516;23.358;2024-03-02T10:58:21;6.93;;;6.23;;
8046;SDS011;74083;42.516;23.358;2024-03-02T11:01:09;8.60;;;6.93;;
8046;SDS011;74083;42.516;23.358;2024-03-02T11:03:58;7.87;;;6.47;;
8046;SDS011;74083;42.516;23.358;2024-03-02T11:06:46;7.63;;;6.87;;
8046;SDS011;74083;42.516;23.358;2024-03-02T11:09:35;7.80;;;6.77;;
8046;SDS011;74083;42.516;23.358;2024-03-02T11:12:28;7.50;;;6.73;;
8046;SDS011;74083;42.516;23.358;2024-03-02T11:15:17;8.60;;;6.67;;
8046;SDS011;74083;42.516;23.358;2024-03-02T11:18:04;7.87;;;6.80;;
8046;SDS011;74083;42.516;23.358;2024-03-02T11:20:52;7.53;;;6.73;;
8046;SDS011;74083;42.516;23.358;2024-03-02T11:23:39;7.43;;;6.63;;
8046;SDS011;74083;42.516;23.358;2024-03-02T11:26:25;7.70;;;6.80;;
8046;SDS011;74083;42.516;23.358;2024-03-02T11:29:18;7.33;;;6.53;;
8046;SDS011;74083;42.516;23.358;2024-03-02T11:32:31;8.20;;;6.57;;
8046;SDS011;74083;42.516;23.358;2024-03-02T11:35:16;6.90;;;6.20;;
8046;SDS011;74083;42.516;23.358;2024-03-02T11:38:02;7.57;;;6.77;;
8046;SDS011;74083;42.516;23.358;2024-03-02T11:40:48;7.60;;;6.77;;
8046;SDS011;74083;42.516;23.358;2024-03-02T11:43:37;7.27;;;6.47;;
8046;SDS011;74083;42.516;23.358;2024-03-02T11:46:24;9.40;;;7.23;;
8046;SDS011;74083;42.516;23.358;2024-03-02T11:49:15;8.53;;;7.37;;
8046;SDS011;74083;42.516;23.358;2024-03-02T11:52:06;7.70;;;6.90;;
8046;SDS011;74083;42.516;23.358;2024-03-02T11:54:52;8.30;;;7.40;;
8046;SDS011;74083;42.516;23.358;2024-03-02T11:57:38;8.00;;;7.13;;
8046;SDS011;74083;42.516;23.358;2024-03-02T12:00:24;9.53;;;7.57;;
8046;SDS011;74083;42.516;23.358;2024-03-02T12:03:13;8.57;;;7.00;;
8046;SDS011;74083;42.516;23.358;2024-03-02T12:06:01;8.60;;;7.70;;
8046;SDS011;74083;42.516;23.358;2024-03-02T12:08:52;9.30;;;7.60;;
8046;SDS011;74083;42.516;23.358;2024-03-02T12:11:38;9.13;;;7.80;;
8046;SDS011;74083;42.516;23.358;2024-03-02T12:14:24;8.70;;;7.80;;
8046;SDS011;74083;42.516;23.358;2024-03-02T12:17:12;9.83;;;8.03;;
8046;SDS011;74083;42.516;23.358;2024-03-02T12:19:58;9.07;;;8.17;;
8046;SDS011;74083;42.516;23.358;2024-03-02T12:22:49;9.63;;;8.40;;
8046;SDS011;74083;42.516;23.358;2024-03-02T12:25:36;11.23;;;8.43;;
8046;SDS011;74083;42.516;23.358;2024-03-02T12:28:22;9.73;;;8.27;;
8046;SDS011;74083;42.516;23.358;2024-03-02T12:31:07;10.47;;;9.17;;
8046;SDS011;74083;42.516;23.358;2024-03-02T12:33:53;9.57;;;8.57;;
8046;SDS011;74083;42.516;23.358;2024-03-02T12:36:40;9.80;;;8.80;;
8046;SDS011;74083;42.516;23.358;2024-03-02T12:39:28;10.97;;;9.03;;
8046;SDS011;74083;42.516;23.358;2024-03-02T12:42:14;11.33;;;9.30;;
8046;SDS011;74083;42.516;23.358;2024-03-02T12:45:00;9.70;;;8.67;;
8046;SDS011;74083;42.516;23.358;2024-03-02T12:47:46;10.27;;;8.77;;
8046;SDS011;74083;42.516;23.358;2024-03-02T12:50:32;9.90;;;8.73;;
8046;SDS011;74083;42.516;23.358;2024-03-02T12:53:18;10.43;;;9.13;;
8046;SDS011;74083;42.516;23.358;2024-03-02T12:56:08;10.23;;;8.63;;
8046;SDS011;74083;42.516;23.358;2024-03-02T12:58:54;9.93;;;8.93;;
8046;SDS011;74083;42.516;23.358;2024-03-02T13:01:49;10.60;;;9.37;;
8046;SDS011;74083;42.516;23.358;2024-03-02T13:04:35;12.03;;;9.47;;
8046;SDS011;74083;42.516;23.358;2024-03-02T13:07:20;11.60;;;9.27;;
8046;SDS011;74083;42.516;23.358;2024-03-02T13:10:07;10.83;;;9.10;;
8046;SDS011;74083;42.516;23.358;2024-03-02T13:12:55;9.87;;;8.87;;
8046;SDS011;74083;42.516;23.358;2024-03-02T13:15:41;11.50;;;9.50;;
8046;SDS011;74083;42.516;23.358;2024-03-02T13:18:28;9.87;;;8.87;;
8046;SDS011;74083;42.516;23.358;2024-03-02T13:21:15;9.77;;;8.73;;
8046;SDS011;74083;42.516;23.358;2024-03-02T13:24:01;10.13;;;9.10;;
8046;SDS011;74083;42.516;23.358;2024-03-02T13:26:46;9.63;;;8.63;;
8046;SDS011;74083;42.516;23.358;2024-03-02T13:29:34;9.53;;;8.60;;
8046;SDS011;74083;42.516;23.358;2024-03-02T13:32:20;9.43;;;8.40;;
8046;SDS011;74083;42.516;23.358;2024-03-02T13:35:07;9.03;;;8.10;;
8046;SDS011;74083;42.516;23.358;2024-03-02T13:37:54;9.87;;;8.73;;
8046;SDS011;74083;42.516;23.358;2024-03-02T13:40:40;9.03;;;8.07;;
8046;SDS011;74083;42.516;23.358;2024-03-02T13:43:26;9.27;;;8.30;;
8046;SDS011;74083;42.516;23.358;2024-03-02T13:46:17;9.33;;;8.23;;
8046;SDS011;74083;42.516;23.358;2024-03-02T13:49:03;9.03;;;8.13;;
8046;SDS011;74083;42.516;23.358;2024-03-02T13:51:48;9.33;;;8.40;;
8046;SDS011;74083;42.516;23.358;2024-03-02T13:54:36;9.53;;;8.47;;
8046;SDS011;74083;42.516;23.358;2024-03-02T13:57:22;9.30;;;8.37;;
8046;SDS011;74083;42.516;23.358;2024-03-02T14:00:09;10.50;;;8.17;;
8046;SDS011;74083;42.516;23.358;2024-03-02T14:02:57;9.83;;;8.83;;
8046;SDS011;74083;42.516;23.358;2024-03-02T14:05:43;9.63;;;8.63;;
8046;SDS011;74083;42.516;23.358;2024-03-02T14:08:29;9.77;;;8.43;;
8046;SDS011;74083;42.516;23.358;2024-03-02T14:11:17;10.20;;;8.63;;
8046;SDS011;74083;42.516;23.358;2024-03-02T14:14:03;10.23;;;8.97;;
8046;SDS011;74083;42.516;23.358;2024-03-02T14:16:49;10.77;;;9.33;;
8046;SDS011;74083;42.516;23.358;2024-03-02T14:19:37;9.67;;;8.67;;
8046;SDS011;74083;42.516;23.358;2024-03-02T14:22:22;10.30;;;9.20;;
8046;SDS011;74083;42.516;23.358;2024-03-02T14:25:08;11.10;;;9.67;;
8046;SDS011;74083;42.516;23.358;2024-03-02T14:27:53;11.10;;;9.33;;
8046;SDS011;74083;42.516;23.358;2024-03-02T14:30:39;11.60;;;10.17;;
8046;SDS011;74083;42.516;23.358;2024-03-02T14:33:25;12.17;;;9.80;;
8046;SDS011;74083;42.516;23.358;2024-03-02T14:36:12;11.67;;;10.13;;
8046;SDS011;74083;42.516;23.358;2024-03-02T14:38:58;12.17;;;10.30;;
8046;SDS011;74083;42.516;23.358;2024-03-02T14:41:44;11.87;;;10.53;;
8046;SDS011;74083;42.516;23.358;2024-03-02T14:44:30;13.13;;;11.27;;
8046;SDS011;74083;42.516;23.358;2024-03-02T14:47:15;11.73;;;10.27;;
8046;SDS011;74083;42.516;23.358;2024-03-02T14:50:01;12.60;;;10.67;;
8046;SDS011;74083;42.516;23.358;2024-03-02T14:52:51;13.80;;;10.93;;
8046;SDS011;74083;42.516;23.358;2024-03-02T14:55:36;12.33;;;11.00;;
8046;SDS011;74083;42.516;23.358;2024-03-02T14:58:22;14.40;;;12.07;;
8046;SDS011;74083;42.516;23.358;2024-03-02T15:01:08;13.67;;;11.27;;
8046;SDS011;74083;42.516;23.358;2024-03-02T15:03:54;13.57;;;11.43;;
8046;SDS011;74083;42.516;23.358;2024-03-02T15:06:39;12.50;;;11.13;;
8046;SDS011;74083;42.516;23.358;2024-03-02T15:09:26;13.10;;;10.97;;
8046;SDS011;74083;42.516;23.358;2024-03-02T15:12:12;14.07;;;11.63;;
8046;SDS011;74083;42.516;23.358;2024-03-02T15:14:58;13.30;;;11.40;;
8046;SDS011;74083;42.516;23.358;2024-03-02T15:17:44;13.67;;;11.23;;
8046;SDS011;74083;42.516;23.358;2024-03-02T15:20:30;13.10;;;11.67;;
8046;SDS011;74083;42.516;23.358;2024-03-02T15:23:16;14.07;;;11.33;;
8046;SDS011;74083;42.516;23.358;2024-03-02T15:26:04;13.40;;;11.47;;
8046;SDS011;74083;42.516;23.358;2024-03-02T15:28:50;14.07;;;12.17;;
8046;SDS011;74083;42.516;23.358;2024-03-02T15:31:37;14.53;;;12.33;;
8046;SDS011;74083;42.516;23.358;2024-03-02T15:34:23;14.67;;;12.37;;
8046;SDS011;74083;42.516;23.358;2024-03-02T15:37:09;15.77;;;12.77;;
8046;SDS011;74083;42.516;23.358;2024-03-02T15:39:55;14.23;;;12.17;;
8046;SDS011;74083;42.516;23.358;2024-03-02T15:42:42;15.57;;;12.47;;
8046;SDS011;74083;42.516;23.358;2024-03-02T15:45:27;15.83;;;12.67;;
8046;SDS011;74083;42.516;23.358;2024-03-02T15:48:17;14.40;;;12.40;;
8046;SDS011;74083;42.516;23.358;2024-03-02T15:51:04;14.77;;;12.23;;
8046;SDS011;74083;42.516;23.358;2024-03-02T15:53:50;16.40;;;12.90;;
8046;SDS011;74083;42.516;23.358;2024-03-02T15:56:35;14.93;;;12.90;;
8046;SDS011;74083;42.516;23.358;2024-03-02T15:59:23;16.57;;;12.90;;
8046;SDS011;74083;42.516;23.358;2024-03-02T16:02:08;14.30;;;12.13;;
8046;SDS011;74083;42.516;23.358;2024-03-02T16:04:54;13.97;;;12.47;;
8046;SDS011;74083;42.516;23.358;2024-03-02T16:07:40;15.10;;;12.50;;
8046;SDS011;74083;42.516;23.358;2024-03-02T16:10:26;14.80;;;12.33;;
8046;SDS011;74083;42.516;23.358;2024-03-02T16:13:12;16.47;;;12.43;;
8046;SDS011;74083;42.516;23.358;2024-03-02T16:15:59;13.90;;;11.67;;
8046;SDS011;74083;42.516;23.358;2024-03-02T16:18:45;14.20;;;11.20;;
8046;SDS011;74083;42.516;23.358;2024-03-02T16:21:31;15.17;;;12.23;;
8046;SDS011;74083;42.516;23.358;2024-03-02T16:24:16;13.13;;;11.57;;
8046;SDS011;74083;42.516;23.358;2024-03-02T16:27:02;14.03;;;11.43;;
8046;SDS011;74083;42.516;23.358;2024-03-02T16:29:49;13.43;;;11.47;;
8046;SDS011;74083;42.516;23.358;2024-03-02T16:32:36;14.27;;;11.30;;
8046;SDS011;74083;42.516;23.358;2024-03-02T16:35:22;13.03;;;11.53;;
8046;SDS011;74083;42.516;23.358;2024-03-02T16:38:08;13.47;;;11.60;;
8046;SDS011;74083;42.516;23.358;2024-03-02T16:40:54;13.27;;;11.00;;